createdAt,value
2022-10-26T00:03:37.285Z,6.15
2022-10-26T00:07:50.183Z,6.25
2022-10-26T00:12:02.155Z,6.38
2022-10-26T00:16:20.266Z,6.07
2022-10-26T00:20:32.601Z,6.18
2022-10-26T00:24:44.129Z,6.80
2022-10-26T00:28:57.204Z,7.32
2022-10-26T00:33:13.247Z,7.20
2022-10-26T00:37:24.757Z,6.88
2022-10-26T00:41:37.456Z,6.55
2022-10-26T00:45:52.568Z,6.18
2022-10-26T00:50:24.900Z,7.28
2022-10-26T00:54:36.554Z,6.85
2022-10-26T00:58:48.395Z,6.40
2022-10-26T01:03:04.351Z,6.28
2022-10-26T01:07:16.134Z,6.35
2022-10-26T01:11:27.625Z,7.10
2022-10-26T01:15:53.075Z,6.27
2022-10-26T01:20:28.209Z,6.72
2022-10-26T01:25:06.740Z,6.05
2022-10-26T01:30:02.472Z,5.93
2022-10-26T01:34:32.810Z,5.80
2022-10-26T01:39:00.654Z,5.63
2022-10-26T01:43:14.839Z,5.65
2022-10-26T01:47:28.719Z,6.60
2022-10-26T01:51:43.049Z,5.60
2022-10-26T01:55:56.020Z,6.13
2022-10-26T02:00:10.461Z,4.95
2022-10-26T02:04:43.744Z,5.18
2022-10-26T02:09:04.350Z,5.28
2022-10-26T02:13:55.325Z,5.35
2022-10-26T02:18:24.986Z,4.97
2022-10-26T02:22:45.396Z,5.53
2022-10-26T02:26:59.975Z,5.10
2022-10-26T02:31:13.696Z,5.33
2022-10-26T02:35:31.775Z,5.93
2022-10-26T02:39:46.780Z,5.60
2022-10-26T02:44:14.954Z,5.57
2022-10-26T02:48:26.488Z,5.65
2022-10-26T02:52:43.919Z,5.47
2022-10-26T02:57:00.029Z,6.10
2022-10-26T03:01:14.198Z,5.72
2022-10-26T03:05:27.644Z,5.35
2022-10-26T03:09:39.100Z,6.03
2022-10-26T03:13:50.550Z,6.57
2022-10-26T03:18:02.422Z,5.82
2022-10-26T03:22:13.843Z,5.72
2022-10-26T03:26:25.617Z,5.40
2022-10-26T03:30:37.201Z,5.20
2022-10-26T03:34:48.633Z,5.57
2022-10-26T03:39:00.160Z,5.13
2022-10-26T03:43:11.645Z,6.15
2022-10-26T03:47:23.089Z,5.55
2022-10-26T03:51:34.525Z,5.30
2022-10-26T03:55:46.034Z,5.18
2022-10-26T03:59:57.501Z,5.35
2022-10-26T04:04:09.050Z,5.47
2022-10-26T04:08:20.557Z,4.82
2022-10-26T04:12:32.248Z,5.38
2022-10-26T04:16:43.723Z,5.10
2022-10-26T04:20:55.216Z,5.45
2022-10-26T04:25:07.446Z,6.00
2022-10-26T04:29:18.890Z,6.20
2022-10-26T04:33:30.325Z,6.38
2022-10-26T04:37:41.929Z,5.55
2022-10-26T04:41:54.373Z,7.27
2022-10-26T04:46:05.955Z,8.05
2022-10-26T04:50:17.461Z,8.55
2022-10-26T04:54:29.342Z,7.93
2022-10-26T04:58:40.752Z,8.15
2022-10-26T05:02:52.527Z,5.50
2022-10-26T05:07:04.095Z,5.72
2022-10-26T05:11:15.977Z,5.18
2022-10-26T05:15:28.500Z,4.85
2022-10-26T05:19:40.009Z,5.13
2022-10-26T05:23:53.749Z,6.30
2022-10-26T05:28:09.538Z,6.68
2022-10-26T05:32:21.054Z,6.25
2022-10-26T05:36:32.604Z,5.53
2022-10-26T05:40:54.371Z,7.05
2022-10-26T05:45:06.305Z,6.05
2022-10-26T05:49:17.889Z,5.35
2022-10-26T05:53:29.351Z,5.07
2022-10-26T05:57:41.515Z,5.72
2022-10-26T06:02:14.908Z,5.28
2022-10-26T06:06:27.892Z,4.80
2022-10-26T06:10:39.861Z,4.78
2022-10-26T06:14:51.625Z,4.40
2022-10-26T06:19:17.613Z,4.20
2022-10-26T06:23:55.615Z,4.88
2022-10-26T06:28:41.569Z,5.72
2022-10-26T06:33:01.416Z,6.72
2022-10-26T06:37:23.661Z,6.95
2022-10-26T06:41:36.670Z,6.72
2022-10-26T06:45:56.781Z,5.93
2022-10-26T06:50:31.468Z,5.45
2022-10-26T06:54:51.212Z,4.68
2022-10-26T06:59:08.742Z,4.57
2022-10-26T07:03:20.213Z,4.50
2022-10-26T07:07:32.085Z,5.50
2022-10-26T07:11:43.547Z,5.68
2022-10-26T07:15:55.028Z,4.97
2022-10-26T07:20:06.762Z,4.43
2022-10-26T07:24:18.272Z,4.55
2022-10-26T07:28:29.779Z,2.97
2022-10-26T07:32:41.599Z,3.20
2022-10-26T07:36:53.092Z,3.08
2022-10-26T07:41:06.289Z,3.15
2022-10-26T07:45:18.977Z,2.70
2022-10-26T07:49:30.477Z,3.03
2022-10-26T07:53:42.209Z,2.60
2022-10-26T07:57:54.884Z,2.70
2022-10-26T08:02:06.743Z,2.60
2022-10-26T08:06:18.298Z,2.75
2022-10-26T08:10:29.846Z,4.13
2022-10-26T08:14:41.373Z,2.80
2022-10-26T08:18:52.881Z,2.30
2022-10-26T08:23:06.178Z,2.00
2022-10-26T08:27:17.753Z,2.47
2022-10-26T08:31:30.697Z,2.28
2022-10-26T08:35:42.226Z,1.70
2022-10-26T08:39:55.347Z,1.77
2022-10-26T08:44:27.090Z,1.80
2022-10-26T08:48:41.812Z,1.98
2022-10-26T08:53:19.990Z,1.65
2022-10-26T08:57:39.358Z,1.48
2022-10-26T09:01:50.872Z,1.48
2022-10-26T09:06:34.953Z,1.50
2022-10-26T09:10:58.578Z,1.83
2022-10-26T09:15:37.683Z,1.50
2022-10-26T09:20:07.808Z,1.65
2022-10-26T09:24:42.138Z,1.70
2022-10-26T09:28:55.069Z,1.80
2022-10-26T09:33:16.079Z,1.92
2022-10-26T09:37:40.623Z,1.90
2022-10-26T09:41:58.528Z,1.92
2022-10-26T09:46:16.615Z,1.95
2022-10-26T09:50:35.183Z,1.95
2022-10-26T09:54:46.662Z,1.90
2022-10-26T09:59:03.234Z,2.35
2022-10-26T10:03:28.057Z,2.42
2022-10-26T10:07:40.178Z,2.30
2022-10-26T10:11:57.652Z,2.35
2022-10-26T10:16:22.509Z,2.20
2022-10-26T10:20:34.288Z,1.83
2022-10-26T10:24:57.202Z,2.30
2022-10-26T10:29:16.247Z,1.80
2022-10-26T10:33:35.207Z,2.40
2022-10-26T10:37:46.872Z,2.40
2022-10-26T10:41:58.389Z,2.40
2022-10-26T10:46:09.929Z,2.25
2022-10-26T10:50:21.695Z,2.10
2022-10-26T10:54:37.442Z,2.40
2022-10-26T10:59:19.154Z,2.00
2022-10-26T11:03:47.302Z,2.20
2022-10-26T11:08:09.833Z,2.40
2022-10-26T11:12:31.866Z,2.10
2022-10-26T11:16:48.892Z,2.20
2022-10-26T11:21:29.394Z,1.90
2022-10-26T11:25:55.199Z,2.10
2022-10-26T11:30:15.067Z,1.83
2022-10-26T11:34:47.441Z,2.20
2022-10-26T11:39:14.749Z,2.55
2022-10-26T11:43:40.052Z,1.83
2022-10-26T11:48:06.641Z,1.75
2022-10-26T11:52:25.133Z,2.28
2022-10-26T11:56:45.197Z,1.83
2022-10-26T12:01:03.480Z,2.08
2022-10-26T12:05:18.266Z,2.10
2022-10-26T12:09:36.883Z,2.30
2022-10-26T12:13:57.846Z,2.13
2022-10-26T12:18:13.152Z,1.90
2022-10-26T12:22:30.685Z,2.08
2022-10-26T12:26:54.304Z,1.88
2022-10-26T12:31:31.945Z,2.22
2022-10-26T12:35:45.144Z,2.30
2022-10-26T12:40:32.289Z,2.38
2022-10-26T12:44:45.551Z,2.58
2022-10-26T12:48:59.827Z,2.60
2022-10-26T12:53:14.445Z,2.38
2022-10-26T12:57:36.576Z,2.33
2022-10-26T13:02:20.259Z,2.55
2022-10-26T13:07:13.122Z,2.20
2022-10-26T13:11:42.752Z,2.20
2022-10-26T13:15:56.743Z,2.25
2022-10-26T13:20:18.405Z,2.70
2022-10-26T13:24:32.680Z,2.55
2022-10-26T13:28:51.627Z,2.72
2022-10-26T13:33:07.376Z,2.78
2022-10-26T13:37:27.080Z,3.03
2022-10-26T13:41:42.375Z,2.58
2022-10-26T13:45:58.441Z,2.95
2022-10-26T13:50:17.833Z,2.60
2022-10-26T13:54:55.541Z,3.00
2022-10-26T13:59:10.664Z,2.90
2022-10-26T14:03:22.237Z,2.78
2022-10-26T14:11:59.994Z,2.53
2022-10-26T14:16:18.348Z,2.80
2022-10-26T14:20:31.585Z,2.40
2022-10-26T14:24:51.575Z,2.45
2022-10-26T14:29:03.131Z,2.70
2022-10-26T14:33:27.797Z,2.33
2022-10-26T14:38:02.339Z,2.33
2022-10-26T14:42:29.151Z,2.17
2022-10-26T14:46:43.738Z,2.20
2022-10-26T14:51:10.807Z,2.03
2022-10-26T14:55:23.804Z,1.98
2022-10-26T14:59:35.369Z,2.08
2022-10-26T15:03:48.379Z,1.70
2022-10-26T15:08:00.559Z,2.22
2022-10-26T15:12:35.177Z,1.80
2022-10-26T15:16:55.930Z,2.08
2022-10-26T15:21:23.020Z,1.50
2022-10-26T15:25:34.945Z,1.92
2022-10-26T15:29:49.344Z,1.58
2022-10-26T15:34:00.826Z,1.50
2022-10-26T15:38:12.346Z,1.50
2022-10-26T15:42:23.849Z,1.40
2022-10-26T15:46:38.596Z,1.67
2022-10-26T15:50:50.078Z,2.05
2022-10-26T15:55:01.599Z,1.90
2022-10-26T15:59:19.706Z,1.50
2022-10-26T16:03:31.182Z,1.58
2022-10-26T16:07:45.224Z,1.58
2022-10-26T16:11:56.748Z,1.50
2022-10-26T16:16:14.054Z,1.60
2022-10-26T16:20:27.594Z,1.70
2022-10-26T16:24:39.200Z,1.70
2022-10-26T16:28:51.616Z,1.88
2022-10-26T16:33:03.424Z,2.30
2022-10-26T16:37:14.900Z,2.40
2022-10-26T16:41:26.564Z,2.80
2022-10-26T16:45:39.728Z,2.35
2022-10-26T16:49:51.223Z,2.50
2022-10-26T16:54:02.712Z,2.45
2022-10-26T16:58:14.234Z,2.00
2022-10-26T17:02:25.894Z,1.80
2022-10-26T17:06:37.458Z,2.10
2022-10-26T17:10:48.957Z,2.72
2022-10-26T17:15:01.429Z,2.72
2022-10-26T17:19:12.993Z,2.60
2022-10-26T17:23:24.965Z,2.25
2022-10-26T17:27:36.447Z,1.90
2022-10-26T17:31:47.917Z,1.80
2022-10-26T17:35:59.467Z,2.38
2022-10-26T17:40:11.546Z,2.50
2022-10-26T17:44:23.131Z,2.95
2022-10-26T17:48:34.712Z,3.58
2022-10-26T17:52:46.264Z,3.15
2022-10-26T17:56:57.901Z,3.55
2022-10-26T18:01:11.842Z,3.17
2022-10-26T18:05:23.627Z,3.05
2022-10-26T18:09:35.194Z,3.00
2022-10-26T18:13:47.590Z,3.15
2022-10-26T18:18:00.737Z,2.60
2022-10-26T18:22:12.613Z,2.67
2022-10-26T18:26:26.529Z,2.63
2022-10-26T18:30:38.074Z,2.30
2022-10-26T18:34:49.707Z,2.58
2022-10-26T18:39:01.412Z,2.60
2022-10-26T18:43:13.265Z,3.30
2022-10-26T18:47:24.884Z,4.78
2022-10-26T18:51:36.512Z,4.15
2022-10-26T18:55:48.122Z,3.33
2022-10-26T18:59:59.720Z,4.00
2022-10-26T19:04:11.317Z,3.30
2022-10-26T19:08:27.776Z,3.03
2022-10-26T19:12:39.642Z,3.70
2022-10-26T19:16:51.525Z,3.67
2022-10-26T19:21:08.027Z,3.40
2022-10-26T19:25:20.209Z,3.30
2022-10-26T19:29:31.768Z,3.03
2022-10-26T19:33:43.356Z,2.67
2022-10-26T19:37:54.943Z,3.15
2022-10-26T19:42:06.795Z,2.80
2022-10-26T19:46:23.772Z,2.45
2022-10-26T19:50:35.297Z,2.60
2022-10-26T19:54:46.826Z,2.15
2022-10-26T19:58:58.475Z,2.92
2022-10-26T20:03:11.270Z,2.85
2022-10-26T20:07:22.936Z,2.38
2022-10-26T20:11:36.507Z,2.67
2022-10-26T20:15:50.592Z,2.47
2022-10-26T20:20:02.548Z,2.33
2022-10-26T20:24:14.130Z,2.60
2022-10-26T20:28:25.929Z,3.22
2022-10-26T20:32:37.529Z,3.03
2022-10-26T20:36:49.050Z,2.40
2022-10-26T20:41:03.641Z,2.45
2022-10-26T20:45:23.642Z,2.65
2022-10-26T20:49:35.930Z,3.00
2022-10-26T20:54:00.515Z,2.38
2022-10-26T20:58:18.923Z,3.15
2022-10-26T21:02:31.269Z,3.17
2022-10-26T21:06:42.975Z,2.80
2022-10-26T21:10:54.546Z,2.92
2022-10-26T21:15:06.801Z,3.55
2022-10-26T21:19:19.592Z,3.47
2022-10-26T21:23:35.747Z,3.33
2022-10-26T21:27:47.654Z,3.95
2022-10-26T21:31:59.298Z,3.85
2022-10-26T21:36:12.357Z,4.05
2022-10-26T21:40:23.989Z,3.60
2022-10-26T21:44:42.774Z,4.45
2022-10-26T21:48:54.339Z,4.40
2022-10-26T21:53:05.896Z,4.32
2022-10-26T21:57:17.440Z,4.00
2022-10-26T22:01:29.085Z,3.97
2022-10-26T22:05:45.014Z,4.18
2022-10-26T22:10:10.245Z,4.35
2022-10-26T22:14:22.684Z,3.70
2022-10-26T22:18:35.964Z,4.22
2022-10-26T22:22:47.563Z,4.18
2022-10-26T22:26:59.274Z,4.00
2022-10-26T22:31:18.549Z,3.42
2022-10-26T22:35:30.320Z,4.05
2022-10-26T22:39:42.009Z,3.97
2022-10-26T22:43:53.668Z,3.25
2022-10-26T22:48:05.307Z,3.45
2022-10-26T22:52:16.935Z,3.60
2022-10-26T22:56:29.956Z,3.70
2022-10-26T23:00:41.577Z,3.63
2022-10-26T23:04:53.148Z,3.65
2022-10-26T23:09:05.555Z,3.50
2022-10-26T23:13:17.127Z,3.90
2022-10-26T23:17:28.689Z,3.80
2022-10-26T23:21:40.305Z,3.00
2022-10-26T23:25:51.893Z,3.97
2022-10-26T23:30:03.602Z,3.72
2022-10-26T23:34:15.170Z,3.30
2022-10-26T23:38:27.343Z,3.53
2022-10-26T23:42:38.991Z,4.05
2022-10-26T23:46:50.596Z,3.55
2022-10-26T23:51:02.242Z,3.78
2022-10-26T23:55:13.945Z,3.03
2022-10-26T23:59:25.502Z,3.45
